Terminal Aerodrome Forecast
Issued by NWS

Home | Current Version | Previous Version | Text Only | Print | Product List | Glossary On
Versions: 1 2 3 4 5 6 7 8 9 10 11 12 13 14 15 16 17 18 19 20 21 22 23 24 25 26 27 28 29 30 31 32 33 34 35
428
FTUS42 KCAE 230313 AAB
TAFDNL
TAF AMD
KDNL 230313Z 2303/2324 17003KT P6SM SKC
     FM230700 VRB03KT 5SM BR OVC007
      TEMPO 2309/2313 1SM BR OVC002
     FM231400 VRB03KT P6SM SCT015 BKN025
     FM231700 16005KT P6SM SCT035=

USA.gov is the U.S. government's official web portal to all federal, state and local government web resources and services.